Metar de toute la France(point de départ, Chateauroux, classé dans l'ordre alphabétique actualisée toutes les 30 minutes)






LFBA - Agen/, France
Distance de la station: SSO 307km
Mise à jour: 21/04/2015 03:00
partiellement nuageux
partiellement nuageux
 Wind from calm
Vent: Vent calme
Température: 8°C
Point de Rosée: 7°C
Humidité: 93%
Baromètre: 1023 hPa
Nuages: partiellement nuageux
Visibilité: 6 km
2015/04/21 01:00 LFBA 210100Z AUTO 00000KT 6000 NSC 08/07 Q1023
LFLP - Annecy/, France
Distance de la station: ESE 352km
Mise à jour: 21/04/2015 03:00
partiellement nuageux
partiellement nuageux
 Wind from variable
Vent: variable 4 km/h
Température: 7°C
Point de Rosée: 2°C
Humidité: 71%
Baromètre: 1023 hPa
Nuages: partiellement nuageux
Visibilité: 10 km
2015/04/21 01:00 LFLP 210100Z AUTO VRB02KT 9999 NSC 07/02 Q1023
 
LFOA - Avord/ , France
Distance de la station: ENE 76km
Mise à jour: 21/04/2015 03:00
partiellement nuageux
partiellement nuageux
 Wind from NE
Vent: NE 11 km/h
Température: 10°C
Wind Chill: 8°C
Point de Rosée: 2°C
Humidité: 58%
Baromètre: 1025 hPa
Nuages: partiellement nuageux
Visibilité: 10 km
2015/04/21 01:00 LFOA 210100Z AUTO 04006KT 9999 NSC 10/02 Q1025
LFSB - Bale/, France
Distance de la station: ENE 449km
Mise à jour: 21/04/2015 03:00
partiellement nuageux
partiellement nuageux
 Wind from OSO
Vent: OSO 9 km/h
Température: 5°C
Wind Chill: 3°C
Point de Rosée: 3°C
Humidité: 87%
Baromètre: 1026 hPa
Nuages: partiellement nuageux
Visibilité: 10 km
2015/04/21 01:00 LFSB 210100Z AUTO 24005KT 9999 NSC 05/03 Q1026
 
LFOB - Beauvais/, France
Distance de la station: N 296km
Mise à jour: 21/04/2015 03:00
partiellement nuageux
partiellement nuageux
 Wind from variable
Vent: variable 6 km/h
Température: 5°C
Point de Rosée: 4°C
Humidité: 93%
Baromètre: 1029 hPa
Nuages: partiellement nuageux
Visibilité: 9 km
2015/04/21 01:00 LFOB 210100Z AUTO VRB03KT 9000 NSC 05/04 Q1029
LFBE - Bergerac/, France
Distance de la station: SSO 240km
Mise à jour: 21/04/2015 03:00
partiellement nuageux
partiellement nuageux
 Wind from calm
Vent: Vent calme
Température: 7°C
Point de Rosée: 6°C
Humidité: 93%
Baromètre: 1024 hPa
Nuages: partiellement nuageux
Visibilité: 10 km
2015/04/21 01:00 LFBE 210100Z AUTO 00000KT 9999 NSC 07/06 Q1024
 
LFMU - Beziers/, France
Distance de la station: SSE 411km
Mise à jour: 21/04/2015 03:00
partiellement nuageux
partiellement nuageux
 Wind from O
Vent: O 7 km/h
Température: 11°C
Point de Rosée: 9°C
Humidité: 88%
Baromètre: 1022 hPa
Nuages: partiellement nuageux
Visibilité: 10 km
2015/04/21 01:00 LFMU 210100Z AUTO 28004KT 9999 NSC 11/09 Q1022
LFBZ - Biarritz/, France
Distance de la station: SO 449km
Mise à jour: 21/04/2015 03:00
partiellement nuageux
partiellement nuageux
 Wind from S
Vent: S 6 km/h
Température: 10°C
Point de Rosée: 9°C
Humidité: 94%
Baromètre: 1023 hPa
Nuages: partiellement nuageux
Visibilité: 10 km
2015/04/21 01:00 LFBZ 210100Z AUTO 17003KT 9999 NSC 10/09 Q1023
 
LFBD - Bordeaux/, France
Distance de la station: SO 289km
Mise à jour: 21/04/2015 03:00

 Wind from variable
Vent: variable 4 km/h
Visibilité: 10 km
2015/04/21 01:00 LFBD 210100Z AUTO VRB02KT 9999 0400 R23/P2000 R05/1300U R29/P2000 BCFG NSC 10/08 Q1024
LFAQ - Bray/, France
Distance de la station: N 358km
Mise à jour: 21/04/2015 03:00
partiellement nuageux
partiellement nuageux
 Wind from N
Vent: N 15 km/h
Température: 6°C
Wind Chill: 3°C
Point de Rosée: 4°C
Humidité: 87%
Baromètre: 1029 hPa
Nuages: partiellement nuageux
Visibilité: 6 km
2015/04/21 01:00 LFAQ 210100Z AUTO 35008KT 6000 NSC 06/04 Q1029
 
LFRB - Brest/, France
Distance de la station: ONO 492km
Mise à jour: 21/04/2015 03:00
Brouillard, partiellement nuageux
Brouillard, partiellement nuageux
 Wind from NE
Vent: NE 13 km/h
Température: 8°C
Wind Chill: 6°C
Point de Rosée: 6°C
Humidité: 87%
Baromètre: 1027 hPa
Récapitulatifs: Brouillard
Nuages: partiellement nuageux
Visibilité: 4 km
2015/04/21 01:00 LFRB 210100Z 04007KT 4000 BR NSC 08/06 Q1027 NOSIG
LFRK - Caen/, France
Distance de la station: NNO 306km
Mise à jour: 21/04/2015 03:00
partiellement nuageux
partiellement nuageux
 Wind from NNO
Vent: NNO 6 km/h
Température: 6°C
Point de Rosée: 5°C
Humidité: 93%
Baromètre: 1029 hPa
Nuages: partiellement nuageux
Visibilité: 6 km
2015/04/21 01:00 LFRK 210100Z AUTO 34003KT 6000 NSC 06/05 Q1029
 
LFMK - Carcassonne/, France
Distance de la station: S 403km
Mise à jour: 21/04/2015 03:00
partiellement nuageux
partiellement nuageux
 Wind from variable
Vent: variable 6 km/h
Température: 10°C
Point de Rosée: 9°C
Humidité: 94%
Baromètre: 1023 hPa
Nuages: partiellement nuageux
Visibilité: 10 km
2015/04/21 01:00 LFMK 210100Z AUTO VRB03KT 9999 NSC 10/09 Q1023
LFMV - Caumont/, France
Distance de la station: SE 410km
Mise à jour: 21/04/2015 03:00
partiellement nuageux
partiellement nuageux
 Wind from calm
Vent: Vent calme
Température: 8°C
Point de Rosée: 7°C
Humidité: 93%
Baromètre: 1021 hPa
Nuages: partiellement nuageux
Visibilité: 10 km
2015/04/21 01:00 LFMV 210100Z AUTO 00000KT 9999 NSC 08/07 Q1021
 
LFBC - Cazaux/, France
Distance de la station: SO 336km
Mise à jour: 21/04/2015 03:00
partiellement nuageux
partiellement nuageux
 Wind from N
Vent: N 4 km/h
Température: 9°C
Point de Rosée: 9°C
Humidité: 100%
Baromètre: 1024 hPa
Nuages: partiellement nuageux
Visibilité: 10 km
2015/04/21 01:00 LFBC 210100Z AUTO 35002KT 9999 NSC 09/09 Q1024
LFPC - Creil/, France
Distance de la station: NNE 278km
Mise à jour: 21/04/2015 03:00
partiellement nuageux
partiellement nuageux
 Wind from N
Vent: N 9 km/h
Température: 8°C
Wind Chill: 6°C
Point de Rosée: 5°C
Humidité: 82%
Baromètre: 1028 hPa
Nuages: partiellement nuageux
Visibilité: 10 km
2015/04/21 01:00 LFPC 210100Z AUTO 01005KT 340V040 9999 NSC 08/05 Q1028
 
LFLB - Chambery/, France
Distance de la station: ESE 348km
Mise à jour: 21/04/2015 03:00
partiellement nuageux
partiellement nuageux
 Wind from S
Vent: S 7 km/h
Température: 7°C
Wind Chill: 6°C
Point de Rosée: 4°C
Humidité: 81%
Baromètre: 1023 hPa
Nuages: partiellement nuageux
Visibilité: 10 km
2015/04/21 01:00 LFLB 210100Z AUTO 17004KT 9999 NSC 07/04 Q1023
LFOK - Chalons/, France
Distance de la station: NE 287km
Mise à jour: 21/04/2015 03:00
partiellement nuageux
partiellement nuageux
 Wind from N
Vent: N 11 km/h
Température: 7°C
Wind Chill: 5°C
Point de Rosée: 2°C
Humidité: 71%
Baromètre: 1027 hPa
Nuages: partiellement nuageux
Visibilité: 10 km
2015/04/21 01:00 LFOK 210100Z AUTO 36006KT 9999 NSC 07/02 Q1027
 
LFOC - Chateaudun/, France
Distance de la station: N 137km
Mise à jour: 21/04/2015 03:00
partiellement nuageux
partiellement nuageux
 Wind from N
Vent: N 11 km/h
Température: 9°C
Wind Chill: 7°C
Point de Rosée: 3°C
Humidité: 66%
Baromètre: 1027 hPa
Nuages: partiellement nuageux
Visibilité: 10 km
2015/04/21 01:00 LFOC 210100Z AUTO 01006KT 9999 NSC 09/03 Q1027
LFLX - Chateauroux/, France
Distance de la station: NE 4km
Mise à jour: 21/04/2015 03:00
partiellement nuageux
partiellement nuageux
 Wind from NE
Vent: NE 9 km/h
Température: 7°C
Wind Chill: 6°C
Point de Rosée: 3°C
Humidité: 76%
Baromètre: 1025 hPa
Nuages: partiellement nuageux
Visibilité: 10 km
2015/04/21 01:00 LFLX 210100Z AUTO 04005KT 9999 NSC 07/03 Q1025
 
LFPG - Charles De Gaulle/, France
Distance de la station: NNE 252km
Mise à jour: 21/04/2015 03:00
clair
clair
 Wind from N
Vent: N 17 km/h
Température: 9°C
Wind Chill: 7°C
Point de Rosée: 4°C
Humidité: 71%
Baromètre: 1028 hPa
Récapitulatifs: clair
Visibilité: supérieure à 10 km
2015/04/21 01:00 LFPG 210100Z 36009KT CAVOK 09/04 Q1028 NOSIG
LFRC - Cherbourg/, France
Distance de la station: NO 390km
Mise à jour: 21/04/2015 03:00
partiellement nuageux
partiellement nuageux
 Wind from ENE
Vent: ENE 15 km/h
Température: 8°C
Wind Chill: 5°C
Point de Rosée: 5°C
Humidité: 82%
Baromètre: 1030 hPa
Nuages: partiellement nuageux
Visibilité: 10 km
2015/04/21 01:00 LFRC 210100Z AUTO 06008KT 9999 NSC 08/05 Q1030
 
LFLC - Clermont/, France
Distance de la station: SE 163km
Mise à jour: 21/04/2015 03:00
clair
clair
 Wind from SSE
Vent: SSE 2 km/h
Température: 7°C
Point de Rosée: 3°C
Humidité: 76%
Baromètre: 1024 hPa
Récapitulatifs: clair
Visibilité: supérieure à 10 km
2015/04/21 01:00 LFLC 210100Z AUTO 16001KT CAVOK 07/03 Q1024
LFBG - Cognac/, France
Distance de la station: SO 200km
Mise à jour: 21/04/2015 03:00
partiellement nuageux
partiellement nuageux
 Wind from calm
Vent: Vent calme
Température: 9°C
Point de Rosée: 7°C
Humidité: 87%
Baromètre: 1024 hPa
Nuages: partiellement nuageux
Visibilité: 10 km
2015/04/21 01:00 LFBG 210100Z AUTO 00000KT 9999 NSC 09/07 Q1024
 
LFBY - Dax/, France
Distance de la station: SSO 411km
Mise à jour: 21/04/2015 03:00

 Wind from NE
Vent: NE 7 km/h
Température: 12°C
Point de Rosée: 9°C
Humidité: 82%
Baromètre: 1023 hPa
Visibilité: 10 km
2015/04/21 01:00 LFBY 210100Z AUTO 04004KT 9999 // ////// 12/09 Q1023
LFSD - Dijon/, France
Distance de la station: ENE 261km
Mise à jour: 21/04/2015 03:00
partiellement nuageux
partiellement nuageux
 Wind from NO
Vent: NO 9 km/h
Température: 9°C
Wind Chill: 7°C
Point de Rosée: 1°C
Humidité: 58%
Baromètre: 1025 hPa
Nuages: partiellement nuageux
Visibilité: 10 km
2015/04/21 01:00 LFSD 210100Z AUTO 32005KT 9999 NSC 09/01 Q1025
 
LFRD - Dinard/, France
Distance de la station: NO 342km
Mise à jour: 21/04/2015 03:00
Brouillard, partiellement nuageux
Brouillard, partiellement nuageux
 Wind from NE
Vent: NE 9 km/h
Température: 8°C
Wind Chill: 6°C
Point de Rosée: 6°C
Humidité: 87%
Baromètre: 1028 hPa
Récapitulatifs: Brouillard
Nuages: partiellement nuageux
Visibilité: 5 km
2015/04/21 01:00 LFRD 210100Z AUTO 04005KT 5000 BR NSC 08/06 Q1028
LFGJ - Dole/, France
Distance de la station: E 286km
Mise à jour: 21/04/2015 03:00
partiellement nuageux
partiellement nuageux
 Wind from N
Vent: N 11 km/h
Température: 11°C
Point de Rosée: 2°C
Humidité: 54%
Baromètre: 1024 hPa
Nuages: partiellement nuageux
Visibilité: 10 km
2015/04/21 01:00 LFGJ 210100Z AUTO 01006KT 250V040 9999 NSC 11/02 Q1024
 
LFOE - Evreux/, France
Distance de la station: N 247km
Mise à jour: 21/04/2015 03:00
partiellement nuageux
partiellement nuageux
 Wind from NE
Vent: NE 13 km/h
Température: 8°C
Wind Chill: 6°C
Point de Rosée: 5°C
Humidité: 82%
Baromètre: 1028 hPa
Nuages: partiellement nuageux
Visibilité: 9 km
2015/04/21 01:00 LFOE 210100Z AUTO 04007KT 9000 NSC 08/05 Q1028
LFMT - Frejorgues/, France
Distance de la station: SSE 403km
Mise à jour: 21/04/2015 03:00
partiellement nuageux
partiellement nuageux
 Wind from ONO
Vent: ONO 9 km/h
Température: 13°C
Point de Rosée: 9°C
Humidité: 77%
Baromètre: 1021 hPa
Nuages: partiellement nuageux
Visibilité: 10 km
2015/04/21 01:00 LFMT 210100Z AUTO 30005KT 9999 NSC 13/09 Q1021
 
LFMI - Istres/, France
Distance de la station: SE 446km
Mise à jour: 21/04/2015 03:00
partiellement nuageux
partiellement nuageux
 Wind from NE
Vent: NE 7 km/h
Température: 9°C
Wind Chill: 8°C
Point de Rosée: 8°C
Humidité: 94%
Baromètre: 1021 hPa
Nuages: partiellement nuageux
Visibilité: 10 km
2015/04/21 01:00 LFMI 210100Z AUTO 05004KT 9999 NSC 09/08 Q1021
LFLS - Grenoble/, France
Distance de la station: ESE 323km
Mise à jour: 21/04/2015 03:00
partiellement nuageux
partiellement nuageux
 Wind from ESE
Vent: ESE 6 km/h
Température: 5°C
Point de Rosée: 4°C
Humidité: 93%
Baromètre: 1023 hPa
Nuages: partiellement nuageux
Visibilité: 10 km
2015/04/21 01:00 LFLS 210100Z AUTO 11003KT 9999 NSC 05/04 Q1023
 
LFBH - La Rochelle/, France
Distance de la station: OSO 229km
Mise à jour: 21/04/2015 03:00
partiellement nuageux
partiellement nuageux
 Wind from NNE
Vent: NNE 11 km/h
Température: 11°C
Point de Rosée: 9°C
Humidité: 88%
Baromètre: 1025 hPa
Nuages: partiellement nuageux
Visibilité: 10 km
2015/04/21 01:00 LFBH 210100Z AUTO 03006KT 9999 NSC 11/09 Q1025
LFRI - La Roche Sur Yon/, France
Distance de la station: O 233km
Mise à jour: 21/04/2015 03:00
Brouillard, partiellement nuageux
Brouillard, partiellement nuageux
 Wind from variable
Vent: variable 4 km/h
Température: 8°C
Point de Rosée: 8°C
Humidité: 100%
Baromètre: 1025 hPa
Récapitulatifs: Brouillard
Nuages: partiellement nuageux
Visibilité: 5 km
2015/04/21 01:00 LFRI 210100Z AUTO VRB02KT 5000 BR NSC 08/08 Q1025
 
LFOH - Le Havre/, France
Distance de la station: NNO 323km
Mise à jour: 21/04/2015 03:00
partiellement nuageux
partiellement nuageux
 Wind from ENE
Vent: ENE 19 km/h
Température: 8°C
Wind Chill: 4°C
Point de Rosée: 5°C
Humidité: 82%
Baromètre: 1029 hPa
Nuages: partiellement nuageux
Visibilité: 10 km
2015/04/21 01:00 LFOH 210100Z AUTO 07010KT 9999 NSC 08/05 Q1029
LFRM - Le Mans/, France
Distance de la station: NO 166km
Mise à jour: 21/04/2015 03:00
partiellement nuageux
partiellement nuageux
 Wind from N
Vent: N 6 km/h
Température: 11°C
Point de Rosée: 3°C
Humidité: 58%
Baromètre: 1027 hPa
Nuages: partiellement nuageux
Visibilité: 10 km
2015/04/21 01:00 LFRM 210100Z AUTO 35003KT 320V020 9999 NSC 11/03 Q1027
 
LFRJ - Landivisiau/, France
Distance de la station: ONO 476km
Mise à jour: 21/04/2015 03:00
Brouillard, partiellement nuageux
Brouillard, partiellement nuageux
 Wind from ENE
Vent: ENE 9 km/h
Température: 8°C
Wind Chill: 6°C
Point de Rosée: 6°C
Humidité: 87%
Baromètre: 1028 hPa
Récapitulatifs: Brouillard
Nuages: partiellement nuageux
Visibilité: 5 km
2015/04/21 01:00 LFRJ 210100Z AUTO 07005KT 5000 BR NSC 08/06 Q1028
LFRO - Lannion/, France
Distance de la station: ONO 441km
Mise à jour: 21/04/2015 03:00
partiellement nuageux
partiellement nuageux
 Wind from variable
Vent: variable 6 km/h
Température: 8°C
Point de Rosée: 6°C
Humidité: 87%
Baromètre: 1028 hPa
Nuages: partiellement nuageux
Visibilité: 7 km
2015/04/21 01:00 LFRO 210100Z AUTO VRB03KT 7000 NSC 08/06 Q1028
 
LFRL - Lanveoc/, France
Distance de la station: ONO 485km
Mise à jour: 21/04/2015 03:00
partiellement nuageux
partiellement nuageux
 Wind from NE
Vent: NE 15 km/h
Température: 9°C
Wind Chill: 7°C
Point de Rosée: 8°C
Humidité: 94%
Baromètre: 1027 hPa
Nuages: partiellement nuageux
Visibilité: 8 km
2015/04/21 01:00 LFRL 210100Z AUTO 05008KT 8000 NSC 09/08 Q1027
LFBL - Limoges/, France
Distance de la station: SSO 113km
Mise à jour: 21/04/2015 03:00
partiellement nuageux
partiellement nuageux
 Wind from NE
Vent: NE 11 km/h
Température: 13°C
Point de Rosée: 5°C
Humidité: 59%
Baromètre: 1024 hPa
Nuages: partiellement nuageux
Visibilité: 10 km
2015/04/21 01:00 LFBL 210100Z AUTO 05006KT 9999 NSC 13/05 Q1024
 
LFQQ - Lille/, France
Distance de la station: NNE 430km
Mise à jour: 21/04/2015 03:00
partiellement nuageux
partiellement nuageux
 Wind from NNE
Vent: NNE 19 km/h
Température: 8°C
Wind Chill: 4°C
Point de Rosée: 6°C
Humidité: 87%
Baromètre: 1030 hPa
Nuages: partiellement nuageux
Visibilité: 10 km
2015/04/21 01:00 LFQQ 210100Z AUTO 02010KT 9999 NSC 08/06 Q1030
LFRH - Lorient/, France
Distance de la station: ONO 401km
Mise à jour: 21/04/2015 03:00
partiellement nuageux
partiellement nuageux
 Wind from NE
Vent: NE 17 km/h
Température: 12°C
Point de Rosée: 7°C
Humidité: 72%
Baromètre: 1026 hPa
Nuages: partiellement nuageux
Visibilité: 10 km
2015/04/21 01:00 LFRH 210100Z AUTO 05009KT 9999 NSC 12/07 Q1026
 
LFLY - Lyon/, France
Distance de la station: ESE 279km
Mise à jour: 21/04/2015 03:00
partiellement nuageux
partiellement nuageux
 Wind from variable
Vent: variable 4 km/h
Température: 11°C
Point de Rosée: 4°C
Humidité: 62%
Baromètre: 1023 hPa
Nuages: partiellement nuageux
Visibilité: 10 km
2015/04/21 01:00 LFLY 210100Z AUTO VRB02KT 9999 NSC 11/04 Q1023
LFLL - Lyon/Satolas, France
Distance de la station: ESE 287km
Mise à jour: 21/04/2015 03:00
clair
clair
 Wind from NNO
Vent: NNO 7 km/h
Température: 10°C
Wind Chill: 9°C
Point de Rosée: 4°C
Humidité: 67%
Baromètre: 1023 hPa
Récapitulatifs: clair
Visibilité: supérieure à 10 km
2015/04/21 01:00 LFLL 210100Z 34004KT CAVOK 10/04 Q1023 NOSIG
 
LFSX - Luxeuil/, France
Distance de la station: ENE 366km
Mise à jour: 21/04/2015 03:00
partiellement nuageux
partiellement nuageux
 Wind from N
Vent: N 4 km/h
Température: 5°C
Point de Rosée: 1°C
Humidité: 76%
Baromètre: 1025 hPa
Nuages: partiellement nuageux
Visibilité: 10 km
2015/04/21 01:00 LFSX 210100Z AUTO 01002KT 9999 NSC 05/01 Q1025
LFJR - Marce/, France
Distance de la station: NO 134km
Mise à jour: 21/04/2015 03:00
partiellement nuageux
partiellement nuageux
 Wind from variable
Vent: variable 4 km/h
Température: 10°C
Point de Rosée: 3°C
Humidité: 62%
Baromètre: 1027 hPa
Nuages: partiellement nuageux
Visibilité: 10 km
2015/04/21 01:00 LFJR 210100Z AUTO VRB02KT 9999 NSC 10/03 Q1027
 
LFML - Marseille/, France
Distance de la station: SE 466km
Mise à jour: 21/04/2015 03:00
partiellement nuageux
partiellement nuageux
 Wind from ENE
Vent: ENE 7 km/h
Température: 10°C
Wind Chill: 9°C
Point de Rosée: 8°C
Humidité: 88%
Baromètre: 1021 hPa
Nuages: partiellement nuageux
Visibilité: 10 km
2015/04/21 01:00 LFML 210100Z AUTO 06004KT 9999 NSC 10/08 Q1021
LFPM - Melun/, France
Distance de la station: NNE 213km
Mise à jour: 21/04/2015 03:00
partiellement nuageux
partiellement nuageux
 Wind from N
Vent: N 11 km/h
Température: 8°C
Wind Chill: 6°C
Point de Rosée: 3°C
Humidité: 71%
Baromètre: 1027 hPa
Nuages: partiellement nuageux
Visibilité: 10 km
2015/04/21 01:00 LFPM 210100Z AUTO 01006KT 9999 NSC 08/03 Q1027
 
LFJL - Metz-Nancy-Lorra/, France
Distance de la station: NE 416km
Mise à jour: 21/04/2015 03:00
partiellement nuageux
partiellement nuageux
 Wind from ENE
Vent: ENE 11 km/h
Température: 8°C
Wind Chill: 6°C
Point de Rosée: 2°C
Humidité: 66%
Baromètre: 1027 hPa
Nuages: partiellement nuageux
Visibilité: 10 km
2015/04/21 01:00 LFJL 210100Z AUTO 06006KT 9999 NSC 08/02 Q1027
LFBM - Mont-De-Marsan/, France
Distance de la station: SSO 365km
Mise à jour: 21/04/2015 03:00
partiellement nuageux
partiellement nuageux
 Wind from E
Vent: E 4 km/h
Température: 8°C
Point de Rosée: 6°C
Humidité: 87%
Baromètre: 1023 hPa
Nuages: partiellement nuageux
Visibilité: 10 km
2015/04/21 01:00 LFBM 210100Z AUTO 08002KT 9999 NSC 08/06 Q1023
 
LFSO - Nancy/, France
Distance de la station: ENE 375km
Mise à jour: 21/04/2015 03:00
partiellement nuageux
partiellement nuageux
 Wind from NNE
Vent: NNE 6 km/h
Température: 10°C
Point de Rosée: 1°C
Humidité: 54%
Baromètre: 1026 hPa
Nuages: partiellement nuageux
Visibilité: 10 km
2015/04/21 01:00 LFSO 210100Z AUTO 03003KT 9999 NSC 10/01 Q1026
LFRS - Nantes/, France
Distance de la station: O 252km
Mise à jour: 21/04/2015 03:00
partiellement nuageux
partiellement nuageux
 Wind from NE
Vent: NE 7 km/h
Température: 12°C
Point de Rosée: 7°C
Humidité: 72%
Baromètre: 1026 hPa
Nuages: partiellement nuageux
Visibilité: 10 km
2015/04/21 01:00 LFRS 210100Z AUTO 04004KT 9999 NSC 12/07 Q1026
 
LFTW - Nimes/, France
Distance de la station: SE 402km
Mise à jour: 21/04/2015 03:00
partiellement nuageux
partiellement nuageux
 Wind from NO
Vent: NO 11 km/h
Température: 12°C
Point de Rosée: 8°C
Humidité: 77%
Baromètre: 1021 hPa
Nuages: partiellement nuageux
Visibilité: 10 km
2015/04/21 01:00 LFTW 210100Z AUTO 31006KT 9999 NSC 12/08 Q1021
LFMO - Orange/, France
Distance de la station: SE 387km
Mise à jour: 21/04/2015 03:00
partiellement nuageux
partiellement nuageux
 Wind from N
Vent: N 17 km/h
Température: 14°C
Point de Rosée: 5°C
Humidité: 55%
Baromètre: 1021 hPa
Nuages: partiellement nuageux
Visibilité: 10 km
2015/04/21 01:00 LFMO 210100Z AUTO 36009KT 9999 NSC 14/05 Q1021
 
LFOJ - Orleans/, France
Distance de la station: N 128km
Mise à jour: 21/04/2015 03:00
partiellement nuageux
partiellement nuageux
 Wind from NE
Vent: NE 11 km/h
Température: 7°C
Wind Chill: 5°C
Point de Rosée: 3°C
Humidité: 76%
Baromètre: 1026 hPa
Nuages: partiellement nuageux
Visibilité: 10 km
2015/04/21 01:00 LFOJ 210100Z AUTO 04006KT 9999 NSC 07/03 Q1026
LFPB - Paris/, France
Distance de la station: NNE 246km
Mise à jour: 21/04/2015 03:00
partiellement nuageux
partiellement nuageux
 Wind from N
Vent: N 13 km/h
Température: 10°C
Wind Chill: 8°C
Point de Rosée: 4°C
Humidité: 67%
Baromètre: 1028 hPa
Nuages: partiellement nuageux
Visibilité: 10 km
2015/04/21 01:00 LFPB 210100Z AUTO 36007KT 9999 NSC 10/04 Q1028
 
LFPO - Paris/Orly/, France
Distance de la station: NNE 218km
Mise à jour: 21/04/2015 03:00
clair
clair
 Wind from N
Vent: N 13 km/h
Température: 11°C
Point de Rosée: 2°C
Humidité: 54%
Baromètre: 1027 hPa
Récapitulatifs: clair
Visibilité: supérieure à 10 km
2015/04/21 01:00 LFPO 210100Z 01007KT CAVOK 11/02 Q1027 NOSIG
LFMP - Perpignan/, France
Distance de la station: SSE 465km
Mise à jour: 21/04/2015 03:00
partiellement nuageux
partiellement nuageux
 Wind from variable
Vent: variable 4 km/h
Température: 14°C
Point de Rosée: 8°C
Humidité: 67%
Baromètre: 1022 hPa
Nuages: partiellement nuageux
Visibilité: 10 km
2015/04/21 01:00 LFMP 210100Z AUTO VRB02KT 9999 NSC 14/08 Q1022
 
LFBI - Poitiers/, France
Distance de la station: OSO 108km
Mise à jour: 21/04/2015 03:00
partiellement nuageux
partiellement nuageux
 Wind from N
Vent: N 4 km/h
Température: 10°C
Point de Rosée: 5°C
Humidité: 71%
Baromètre: 1025 hPa
Nuages: partiellement nuageux
Visibilité: 10 km
2015/04/21 01:00 LFBI 210100Z AUTO 01002KT 9999 NSC 10/05 Q1025
LFRQ - Quimper/, France
Distance de la station: ONO 458km
Mise à jour: 21/04/2015 03:00
partiellement nuageux
partiellement nuageux
 Wind from NE
Vent: NE 13 km/h
Température: 10°C
Wind Chill: 8°C
Point de Rosée: 6°C
Humidité: 76%
Baromètre: 1027 hPa
Nuages: partiellement nuageux
Visibilité: 10 km
2015/04/21 01:00 LFRQ 210100Z AUTO 05007KT 9999 NSC 10/06 Q1027
 
LFRN - Rennes/, France
Distance de la station: ONO 291km
Mise à jour: 21/04/2015 03:00
partiellement nuageux
partiellement nuageux
 Wind from variable
Vent: variable 2 km/h
Température: 9°C
Point de Rosée: 6°C
Humidité: 82%
Baromètre: 1027 hPa
Nuages: partiellement nuageux
Visibilité: 9 km
2015/04/21 01:00 LFRN 210100Z AUTO VRB01KT 9000 NSC 09/06 Q1027
LFCR - Rodez/, France
Distance de la station: SSE 277km
Mise à jour: 21/04/2015 03:00
partiellement nuageux
partiellement nuageux
 Wind from calm
Vent: Vent calme
Température: 7°C
Point de Rosée: 7°C
Humidité: 100%
Baromètre: 1024 hPa
Nuages: partiellement nuageux
Visibilité: 10 km
2015/04/21 01:00 LFCR 210100Z AUTO 00000KT 9999 NSC 07/07 Q1024
 
LFYR - Romorantin/, France
Distance de la station: N 56km
Mise à jour: 21/04/2015 03:00
partiellement nuageux
partiellement nuageux
 Wind from calm
Vent: Vent calme
Température: 3°C
Point de Rosée: 3°C
Humidité: 100%
Baromètre: 1026 hPa
Nuages: partiellement nuageux
Visibilité: 10 km
2015/04/21 01:00 LFYR 210100Z AUTO 00000KT 9999 NSC 03/03 Q1026
LFOP - Rouen/, France
Distance de la station: N 286km
Mise à jour: 21/04/2015 03:00
partiellement nuageux
partiellement nuageux
 Wind from NNE
Vent: NNE 17 km/h
Température: 9°C
Wind Chill: 7°C
Point de Rosée: 5°C
Humidité: 76%
Baromètre: 1029 hPa
Nuages: partiellement nuageux
Visibilité: 10 km
2015/04/21 01:00 LFOP 210100Z AUTO 03009KT 9999 NSC 09/05 Q1029
 
LFMY - Salon/, France
Distance de la station: SE 446km
Mise à jour: 21/04/2015 03:00
Quelques Nuages
Quelques Nuages
 Wind from variable
Vent: variable 2 km/h
Nuages: Quelques Nuages
Visibilité: 10 km
Nuages details: Quelques Nuages 30 m
2015/04/21 01:00 LFMY 210100Z AUTO VRB01KT 9999 FEW001 09/// Q1021
LFST - Strasbourg/, France
Distance de la station: ENE 483km
Mise à jour: 21/04/2015 03:00
partiellement nuageux
partiellement nuageux
 Wind from NNO
Vent: NNO 9 km/h
Température: 6°C
Wind Chill: 4°C
Point de Rosée: 3°C
Humidité: 81%
Baromètre: 1026 hPa
Nuages: partiellement nuageux
Visibilité: 10 km
2015/04/21 01:00 LFST 210100Z AUTO 34005KT 9999 NSC 06/03 Q1026
 
LFRT - Saint-Brieuc/, France
Distance de la station: ONO 388km
Mise à jour: 20/04/2015 23:00
Pas à jour
partiellement nuageux
partiellement nuageux
 Wind from variable
Vent: variable 2 km/h
Température: 9°C
Point de Rosée: 7°C
Humidité: 87%
Baromètre: 1028 hPa
Nuages: partiellement nuageux
Visibilité: 9 km
2015/04/20 21:00 LFRT 202100Z AUTO VRB01KT 9000 NSC 09/07 Q1028
LFSI - St. Dizier/, France
Distance de la station: NE 313km
Mise à jour: 21/04/2015 03:00
partiellement nuageux
partiellement nuageux
 Wind from calm
Vent: Vent calme
Température: 8°C
Point de Rosée: 3°C
Humidité: 71%
Baromètre: 1027 hPa
Nuages: partiellement nuageux
Visibilité: 10 km
2015/04/21 01:00 LFSI 210100Z AUTO 00000KT 9999 NSC 08/03 Q1027
 
LFMH - St Etienne/, France
Distance de la station: SE 247km
Mise à jour: 21/04/2015 03:00
partiellement nuageux
partiellement nuageux
 Wind from S
Vent: S 7 km/h
Température: 6°C
Wind Chill: 4°C
Point de Rosée: 2°C
Humidité: 76%
Baromètre: 1024 hPa
Nuages: partiellement nuageux
Visibilité: 10 km
2015/04/21 01:00 LFMH 210100Z AUTO 17004KT 9999 NSC 06/02 Q1024
LFRG - St Gatien/, France
Distance de la station: NNO 305km
Mise à jour: 21/04/2015 03:00
partiellement nuageux
partiellement nuageux
 Wind from ENE
Vent: ENE 9 km/h
Température: 8°C
Wind Chill: 6°C
Point de Rosée: 6°C
Humidité: 87%
Baromètre: 1029 hPa
Nuages: partiellement nuageux
Visibilité: 9 km
2015/04/21 01:00 LFRG 210100Z AUTO 06005KT 9000 NSC 08/06 Q1029
 
LFRZ - St. Nazaire/, France
Distance de la station: ONO 297km
Mise à jour: 21/04/2015 03:00
partiellement nuageux
partiellement nuageux
 Wind from NNE
Vent: NNE 6 km/h
Température: 10°C
Point de Rosée: 6°C
Humidité: 76%
Baromètre: 1026 hPa
Nuages: partiellement nuageux
Visibilité: 10 km
2015/04/21 01:00 LFRZ 210100Z AUTO 03003KT 9999 NSC 10/06 Q1026
LFLN - Saint Yan/, France
Distance de la station: ESE 184km
Mise à jour: 21/04/2015 03:00
partiellement nuageux
partiellement nuageux
 Wind from calm
Vent: Vent calme
Température: 4°C
Point de Rosée: 2°C
Humidité: 87%
Baromètre: 1024 hPa
Nuages: partiellement nuageux
Visibilité: 10 km
2015/04/21 01:00 LFLN 210100Z AUTO 00000KT 9999 NSC 04/02 Q1024
 
LFBT - Tarbes/, France
Distance de la station: SSO 427km
Mise à jour: 21/04/2015 03:00
partiellement nuageux
partiellement nuageux
 Wind from SSE
Vent: SSE 4 km/h
Température: 8°C
Point de Rosée: 7°C
Humidité: 93%
Baromètre: 1023 hPa
Nuages: partiellement nuageux
Visibilité: 10 km
2015/04/21 01:00 LFBT 210100Z AUTO 16002KT 9999 NSC 08/07 Q1023
LFSL - Toul/, France
Distance de la station: NE 356km
Mise à jour: 21/04/2015 03:00
partiellement nuageux
partiellement nuageux
 Wind from calm
Vent: Vent calme
Température: 7°C
Point de Rosée: 6°C
Humidité: 93%
Baromètre: 1024 hPa
Nuages: partiellement nuageux
Visibilité: 10 km
2015/04/21 01:00 LFSL 210100Z AUTO 00000KT 9999 NSC 07/06 Q1024
 
LFBO - Toulouse/, France
Distance de la station: S 357km
Mise à jour: 21/04/2015 03:00
partiellement nuageux
partiellement nuageux
 Wind from S
Vent: S 6 km/h
Température: 10°C
Point de Rosée: 9°C
Humidité: 94%
Baromètre: 1023 hPa
Nuages: partiellement nuageux
Visibilité: 10 km
2015/04/21 01:00 LFBO 210100Z AUTO 18003KT 9999 NSC 10/09 Q1023
LFOT - Tours/, France
Distance de la station: NO 100km
Mise à jour: 21/04/2015 03:00
partiellement nuageux
partiellement nuageux
 Wind from NE
Vent: NE 11 km/h
Température: 11°C
Point de Rosée: 3°C
Humidité: 58%
Baromètre: 1026 hPa
Nuages: partiellement nuageux
Visibilité: 10 km
2015/04/21 01:00 LFOT 210100Z AUTO 04006KT 9999 NSC 11/03 Q1026
 
LFPN - Toussus Le Noble/, France
Distance de la station: N 217km
Mise à jour: 21/04/2015 03:00
clair
clair
 Wind from N
Vent: N 11 km/h
Température: 8°C
Wind Chill: 6°C
Point de Rosée: 3°C
Humidité: 71%
Baromètre: 1028 hPa
Récapitulatifs: clair
Visibilité: supérieure à 10 km
2015/04/21 01:00 LFPN 210100Z AUTO 35006KT CAVOK 08/03 Q1028
LFPV - Villacoublay/, France
Distance de la station: N 220km
Mise à jour: 21/04/2015 03:00
partiellement nuageux
partiellement nuageux
 Wind from N
Vent: N 15 km/h
Température: 13°C
Point de Rosée: 3°C
Humidité: 51%
Baromètre: 1027 hPa
Nuages: partiellement nuageux
Visibilité: 10 km
2015/04/21 01:00 LFPV 210100Z AUTO 01008KT 9999 NSC 13/03 Q1027